createdAt,value
2023-03-07T00:00:21.778Z,18.85
2023-03-07T00:00:44.687Z,18.52
2023-03-07T00:01:07.460Z,18.55
2023-03-07T00:01:31.597Z,18.42
2023-03-07T00:01:54.282Z,18.50
2023-03-07T00:02:17.028Z,18.73
2023-03-07T00:02:39.883Z,18.15
2023-03-07T00:03:03.125Z,18.83
2023-03-07T00:03:27.385Z,18.20
2023-03-07T00:03:50.369Z,18.15
2023-03-07T00:04:13.436Z,19.23
2023-03-07T00:04:36.437Z,18.75
2023-03-07T00:04:59.265Z,19.00
2023-03-07T00:05:22.094Z,18.48
2023-03-07T00:05:44.849Z,18.58
2023-03-07T00:06:08.881Z,18.27
2023-03-07T00:06:31.734Z,19.42
2023-03-07T00:06:55.930Z,18.90
2023-03-07T00:07:18.723Z,18.52
2023-03-07T00:07:41.576Z,18.40
2023-03-07T00:08:04.688Z,19.00
2023-03-07T00:08:27.413Z,19.73
2023-03-07T00:08:50.609Z,19.02
2023-03-07T00:09:15.261Z,18.95
2023-03-07T00:09:38.019Z,19.75
2023-03-07T00:10:00.806Z,18.85
2023-03-07T00:10:23.528Z,19.27
2023-03-07T00:10:46.310Z,19.83
2023-03-07T00:11:09.284Z,19.73
2023-03-07T00:11:33.676Z,19.48
2023-03-07T00:11:56.476Z,19.88
2023-03-07T00:12:21.229Z,19.83
2023-03-07T00:12:44.018Z,19.67
2023-03-07T00:13:06.815Z,19.58
2023-03-07T00:13:31.385Z,19.75
2023-03-07T00:13:54.229Z,19.23
2023-03-07T00:14:17.057Z,19.75
2023-03-07T00:14:39.974Z,19.67
2023-03-07T00:15:02.744Z,20.08
2023-03-07T00:15:26.272Z,19.30
2023-03-07T00:15:49.031Z,20.05
2023-03-07T00:16:12.887Z,19.75
2023-03-07T00:16:35.757Z,18.70
2023-03-07T00:16:58.492Z,18.55
2023-03-07T00:17:21.223Z,19.77
2023-03-07T00:17:43.957Z,19.98
2023-03-07T00:18:07.539Z,19.05
2023-03-07T00:18:30.388Z,19.15
2023-03-07T00:18:53.180Z,20.00
2023-03-07T00:19:18.811Z,19.50
2023-03-07T00:19:42.900Z,18.70
2023-03-07T00:20:07.540Z,19.23
2023-03-07T00:20:30.619Z,19.52
2023-03-07T00:20:58.418Z,19.58
2023-03-07T00:21:22.102Z,18.58
2023-03-07T00:21:44.882Z,19.67
2023-03-07T00:22:07.807Z,19.13
2023-03-07T00:22:30.615Z,18.83
2023-03-07T00:22:53.335Z,18.80
2023-03-07T00:23:19.242Z,19.52
2023-03-07T00:23:43.117Z,18.88
2023-03-07T00:24:06.897Z,18.83
2023-03-07T00:24:30.673Z,19.50
2023-03-07T00:24:53.389Z,18.83
2023-03-07T00:25:16.380Z,18.42
2023-03-07T00:25:39.142Z,18.58
2023-03-07T00:26:05.408Z,18.92
2023-03-07T00:26:28.354Z,19.58
2023-03-07T00:26:52.656Z,20.08
2023-03-07T00:27:15.518Z,19.92
2023-03-07T00:27:38.321Z,19.40
2023-03-07T00:28:01.130Z,19.35
2023-03-07T00:28:23.946Z,19.05
2023-03-07T00:28:47.446Z,19.58
2023-03-07T00:29:10.393Z,19.70
2023-03-07T00:29:33.211Z,19.20
2023-03-07T00:29:56.021Z,19.13
2023-03-07T00:30:19.045Z,19.13
2023-03-07T00:30:41.837Z,19.40
2023-03-07T00:31:06.381Z,19.30
2023-03-07T00:31:29.283Z,19.25
2023-03-07T00:31:52.070Z,18.90
2023-03-07T00:32:17.347Z,20.10
2023-03-07T00:32:40.218Z,19.48
2023-03-07T00:33:02.942Z,18.92
2023-03-07T00:33:25.711Z,19.20
2023-03-07T00:33:48.523Z,18.55
2023-03-07T00:34:11.288Z,18.83
2023-03-07T00:34:34.231Z,19.48
2023-03-07T00:34:57.246Z,19.23
2023-03-07T00:35:20.017Z,18.25
2023-03-07T00:35:43.867Z,18.63
2023-03-07T00:36:08.175Z,19.38
2023-03-07T00:36:30.887Z,18.77
2023-03-07T00:36:53.791Z,19.55
2023-03-07T00:37:16.641Z,18.60
2023-03-07T00:37:39.365Z,18.77
2023-03-07T00:38:02.763Z,19.13
2023-03-07T00:38:25.584Z,19.35
2023-03-07T00:38:48.378Z,18.90
2023-03-07T00:39:12.032Z,18.77
2023-03-07T00:39:56.284Z,18.90
2023-03-07T00:40:19.239Z,18.92
2023-03-07T00:40:42.098Z,19.08
2023-03-07T00:41:06.316Z,18.88
2023-03-07T00:41:29.494Z,18.45
2023-03-07T00:41:53.683Z,18.90
2023-03-07T00:42:16.504Z,18.77
2023-03-07T00:42:39.295Z,19.20
2023-03-07T00:43:02.004Z,18.48
2023-03-07T00:43:24.821Z,18.27
2023-03-07T00:43:47.677Z,19.00
2023-03-07T00:44:10.409Z,18.80
2023-03-07T00:44:33.168Z,18.30
2023-03-07T00:44:56.498Z,18.80
2023-03-07T00:45:22.043Z,18.35
2023-03-07T00:45:44.860Z,18.63
2023-03-07T00:46:07.891Z,18.33
2023-03-07T00:46:30.693Z,18.17
2023-03-07T00:46:53.444Z,19.05
2023-03-07T00:47:17.285Z,18.83
2023-03-07T00:47:40.064Z,18.60
2023-03-07T00:48:02.795Z,18.40
2023-03-07T00:48:26.632Z,18.00
2023-03-07T00:48:49.446Z,18.10
2023-03-07T00:49:12.161Z,19.05
2023-03-07T00:49:34.953Z,19.15
2023-03-07T00:49:57.869Z,18.25
2023-03-07T00:50:20.656Z,18.15
2023-03-07T00:50:43.377Z,18.15
2023-03-07T00:51:07.277Z,18.92
2023-03-07T00:51:30.098Z,18.30
2023-03-07T00:51:52.829Z,18.33
2023-03-07T00:52:15.539Z,18.40
2023-03-07T00:52:38.266Z,18.80
2023-03-07T00:53:01.090Z,18.80
2023-03-07T00:53:24.953Z,18.47
2023-03-07T00:53:47.876Z,18.42
2023-03-07T00:54:12.940Z,18.00
2023-03-07T00:54:35.686Z,18.83
2023-03-07T00:54:58.419Z,19.45
2023-03-07T00:55:21.177Z,19.60
2023-03-07T00:55:53.414Z,19.33
2023-03-07T00:56:19.874Z,18.75
2023-03-07T00:56:42.679Z,19.17
2023-03-07T00:57:07.090Z,18.98
2023-03-07T00:57:29.943Z,19.65
2023-03-07T00:57:52.669Z,19.30
2023-03-07T00:58:15.535Z,19.25
2023-03-07T00:58:38.269Z,18.77
2023-03-07T00:59:01.042Z,18.90
2023-03-07T00:59:23.977Z,19.02
2023-03-07T00:59:46.741Z,19.25
2023-03-07T01:00:11.862Z,19.60
2023-03-07T01:00:34.721Z,19.15
2023-03-07T01:00:58.377Z,19.70
2023-03-07T01:01:22.593Z,21.17
2023-03-07T01:01:45.417Z,20.27
2023-03-07T01:02:08.164Z,21.25
2023-03-07T01:02:33.126Z,21.38
2023-03-07T01:02:57.842Z,20.63
2023-03-07T01:03:20.816Z,21.58
2023-03-07T01:03:43.580Z,21.15
2023-03-07T01:04:06.542Z,22.42
2023-03-07T01:04:29.400Z,21.63
2023-03-07T01:04:52.091Z,20.77
2023-03-07T01:05:15.135Z,21.08
2023-03-07T01:05:39.329Z,20.95
2023-03-07T01:06:02.816Z,21.92
2023-03-07T01:06:26.600Z,21.98
2023-03-07T01:06:50.616Z,21.92
2023-03-07T01:07:13.457Z,21.75
2023-03-07T01:07:36.300Z,21.90
2023-03-07T01:07:59.124Z,21.55
2023-03-07T01:08:21.945Z,21.50
2023-03-07T01:08:44.724Z,21.05
2023-03-07T01:09:08.594Z,20.85
2023-03-07T01:09:31.373Z,21.15
2023-03-07T01:09:54.267Z,22.23
2023-03-07T01:10:17.159Z,21.83
2023-03-07T01:10:39.845Z,21.48
2023-03-07T01:11:04.013Z,21.40
2023-03-07T01:11:26.752Z,20.63
2023-03-07T01:11:50.289Z,20.92
2023-03-07T01:12:14.625Z,20.90
2023-03-07T01:12:37.367Z,20.80
2023-03-07T01:13:00.275Z,21.30
2023-03-07T01:13:23.056Z,21.33
2023-03-07T01:13:45.836Z,20.60
2023-03-07T01:14:08.685Z,21.08
2023-03-07T01:14:31.372Z,20.67
2023-03-07T01:14:54.186Z,20.77
2023-03-07T01:15:17.095Z,22.10
2023-03-07T01:15:39.779Z,21.45
2023-03-07T01:16:09.787Z,21.25
2023-03-07T01:16:33.660Z,22.23
2023-03-07T01:16:56.595Z,21.70
2023-03-07T01:17:19.531Z,22.33
2023-03-07T01:17:42.269Z,21.70
2023-03-07T01:18:05.311Z,21.65
2023-03-07T01:18:27.988Z,22.15
2023-03-07T01:18:51.883Z,22.27
2023-03-07T01:19:17.291Z,22.70
2023-03-07T01:19:40.086Z,21.80
2023-03-07T01:20:07.214Z,21.83
2023-03-07T01:20:32.473Z,22.75
2023-03-07T01:20:55.205Z,23.20
2023-03-07T01:21:19.416Z,22.80
2023-03-07T01:21:42.935Z,21.95
2023-03-07T01:22:05.676Z,21.88
2023-03-07T01:22:28.420Z,22.42
2023-03-07T01:22:51.210Z,21.48
2023-03-07T01:23:14.061Z,22.58
2023-03-07T01:23:36.820Z,23.40
2023-03-07T01:23:59.569Z,22.85
2023-03-07T01:24:22.347Z,22.48
2023-03-07T01:24:45.076Z,22.85
2023-03-07T01:25:10.181Z,22.02
2023-03-07T01:25:38.209Z,22.10
2023-03-07T01:26:00.978Z,23.30
2023-03-07T01:26:25.593Z,23.23
2023-03-07T01:26:49.184Z,23.45
2023-03-07T01:27:13.397Z,22.75
2023-03-07T01:27:36.204Z,22.33
2023-03-07T01:27:59.113Z,22.23
2023-03-07T01:28:21.925Z,22.92
2023-03-07T01:28:44.710Z,24.55
2023-03-07T01:29:08.248Z,22.83
2023-03-07T01:29:31.406Z,24.25
2023-03-07T01:29:54.120Z,24.60
2023-03-07T01:30:17.036Z,23.75
2023-03-07T01:30:39.878Z,23.80
2023-03-07T01:31:05.487Z,23.30
2023-03-07T01:31:30.433Z,23.95
2023-03-07T01:31:53.631Z,23.88
2023-03-07T01:32:16.495Z,22.92
2023-03-07T01:32:39.253Z,23.70
2023-03-07T01:33:02.305Z,22.73
2023-03-07T01:33:25.200Z,21.80
2023-03-07T01:33:48.164Z,22.88
2023-03-07T01:34:11.081Z,22.83
2023-03-07T01:34:34.020Z,22.60
2023-03-07T01:34:56.881Z,22.10
2023-03-07T01:35:19.651Z,23.45
2023-03-07T01:35:42.423Z,22.85
2023-03-07T01:36:05.733Z,22.95
2023-03-07T01:36:30.417Z,21.95
2023-03-07T01:36:53.629Z,22.30
2023-03-07T01:37:16.475Z,22.55
2023-03-07T01:37:39.222Z,21.67
2023-03-07T01:38:02.060Z,22.23
2023-03-07T01:38:24.800Z,22.38
2023-03-07T01:38:47.815Z,23.30
2023-03-07T01:39:14.179Z,22.83
2023-03-07T01:39:37.350Z,22.52
2023-03-07T01:40:00.172Z,22.70
2023-03-07T01:40:23.608Z,22.77
2023-03-07T01:40:46.316Z,22.40
2023-03-07T01:41:10.014Z,22.60
2023-03-07T01:41:33.090Z,21.92
2023-03-07T01:41:55.982Z,21.88
2023-03-07T01:42:20.276Z,22.52
2023-03-07T01:42:43.036Z,22.63
2023-03-07T01:43:26.171Z,22.52
2023-03-07T01:43:48.984Z,21.30
2023-03-07T01:44:15.791Z,21.95
2023-03-07T01:45:02.744Z,22.33
2023-03-07T01:46:16.961Z,24.05
2023-03-07T01:46:46.031Z,22.67
2023-03-07T01:47:08.834Z,22.92
2023-03-07T01:47:31.698Z,23.83
2023-03-07T01:47:54.430Z,22.48
2023-03-07T01:48:17.393Z,22.40
2023-03-07T01:48:40.145Z,22.57
2023-03-07T01:49:05.494Z,22.48
2023-03-07T01:49:30.078Z,22.13
2023-03-07T01:49:52.996Z,22.13
2023-03-07T01:50:16.654Z,22.98
2023-03-07T01:50:39.492Z,21.73
2023-03-07T01:51:02.297Z,21.88
2023-03-07T01:51:25.128Z,23.48
2023-03-07T01:51:50.192Z,21.73
2023-03-07T01:52:16.422Z,22.08
2023-03-07T01:52:40.104Z,22.25
2023-03-07T01:53:02.888Z,23.05
2023-03-07T01:53:25.653Z,23.35
2023-03-07T01:53:48.565Z,22.85
2023-03-07T01:54:12.329Z,22.55
2023-03-07T01:54:35.854Z,22.60
2023-03-07T01:55:00.791Z,21.58
2023-03-07T01:55:24.483Z,21.85
2023-03-07T01:55:47.250Z,21.98
2023-03-07T01:56:10.094Z,22.92
2023-03-07T01:56:32.957Z,22.42
2023-03-07T01:56:58.793Z,21.77
2023-03-07T01:57:25.210Z,22.23
2023-03-07T01:57:48.494Z,22.17
2023-03-07T01:58:13.146Z,22.13
2023-03-07T01:58:36.142Z,22.30
2023-03-07T01:58:58.862Z,22.80
2023-03-07T01:59:25.548Z,22.08
2023-03-07T01:59:49.442Z,22.20
2023-03-07T02:00:14.256Z,22.50
2023-03-07T02:00:38.930Z,21.98
2023-03-07T02:01:02.809Z,21.35
2023-03-07T02:01:25.664Z,20.92
2023-03-07T02:01:48.452Z,21.17
2023-03-07T02:02:12.615Z,21.75
2023-03-07T02:02:35.548Z,21.42
2023-03-07T02:03:02.814Z,21.42
2023-03-07T02:03:29.779Z,20.92
2023-03-07T02:03:54.011Z,21.50
2023-03-07T02:04:19.237Z,21.60
2023-03-07T02:04:43.529Z,21.77
2023-03-07T02:05:10.120Z,21.63
2023-03-07T02:05:34.708Z,21.08
2023-03-07T02:05:58.830Z,21.13
2023-03-07T02:06:21.656Z,21.63
2023-03-07T02:06:44.571Z,20.17
2023-03-07T02:07:07.335Z,21.25
2023-03-07T02:07:32.178Z,21.48
2023-03-07T02:07:54.995Z,21.50
2023-03-07T02:08:20.151Z,21.15
2023-03-07T02:08:43.066Z,21.10
2023-03-07T02:09:06.449Z,21.40
2023-03-07T02:09:29.199Z,21.27
2023-03-07T02:09:51.991Z,20.45
2023-03-07T02:10:14.919Z,20.48
2023-03-07T02:10:37.685Z,21.02
2023-03-07T02:11:00.646Z,21.05
2023-03-07T02:11:23.376Z,21.73
2023-03-07T02:11:46.159Z,21.60
2023-03-07T02:12:09.072Z,21.40
2023-03-07T02:12:33.292Z,21.08
2023-03-07T02:12:57.477Z,22.08
2023-03-07T02:13:22.724Z,21.02
2023-03-07T02:13:46.570Z,21.75
2023-03-07T02:14:09.365Z,21.40
2023-03-07T02:14:32.162Z,21.30
2023-03-07T02:14:54.966Z,22.15
2023-03-07T02:15:17.868Z,22.40
2023-03-07T02:15:40.759Z,21.40
2023-03-07T02:16:03.986Z,21.90
2023-03-07T02:16:26.970Z,21.90
2023-03-07T02:16:49.756Z,22.00
2023-03-07T02:17:12.419Z,21.75
2023-03-07T02:17:35.616Z,22.10
2023-03-07T02:18:01.440Z,21.92
2023-03-07T02:18:26.009Z,21.70
2023-03-07T02:18:49.918Z,22.88
2023-03-07T02:19:22.781Z,21.80
2023-03-07T02:19:53.606Z,22.20
2023-03-07T02:20:24.707Z,22.67
2023-03-07T02:20:49.355Z,22.48
2023-03-07T02:21:17.008Z,21.60
2023-03-07T02:21:42.303Z,21.52
2023-03-07T02:22:09.684Z,21.77
2023-03-07T02:22:32.488Z,23.15
2023-03-07T02:22:55.334Z,23.23
2023-03-07T02:23:20.676Z,21.98
2023-03-07T02:23:47.070Z,21.77
2023-03-07T02:24:15.020Z,22.65
2023-03-07T02:24:42.624Z,22.13
2023-03-07T02:25:08.000Z,23.08
2023-03-07T02:25:32.982Z,22.52
2023-03-07T02:25:59.604Z,22.80
2023-03-07T02:26:26.264Z,23.08
2023-03-07T02:26:51.406Z,22.75
2023-03-07T02:27:15.136Z,22.33
2023-03-07T02:27:37.894Z,22.30
2023-03-07T02:28:00.659Z,21.67
2023-03-07T02:28:23.510Z,22.30
2023-03-07T02:28:46.508Z,21.73
2023-03-07T02:29:09.284Z,22.55
2023-03-07T02:29:32.032Z,22.25
2023-03-07T02:29:54.732Z,22.58
2023-03-07T02:30:17.651Z,22.05
2023-03-07T02:30:52.334Z,21.90
2023-03-07T02:31:15.430Z,22.38
2023-03-07T02:31:38.272Z,22.77
2023-03-07T02:32:01.063Z,22.20
2023-03-07T02:32:23.863Z,22.20
2023-03-07T02:32:46.876Z,23.23
2023-03-07T02:33:09.605Z,22.50
2023-03-07T02:33:32.338Z,22.88
2023-03-07T02:33:55.157Z,21.80
2023-03-07T02:34:22.558Z,22.27
2023-03-07T02:34:45.396Z,22.25
2023-03-07T02:35:18.994Z,22.95
2023-03-07T02:35:45.218Z,22.10
2023-03-07T02:36:10.794Z,23.00
2023-03-07T02:36:34.567Z,23.15
2023-03-07T02:36:58.862Z,22.40
2023-03-07T02:37:24.196Z,21.98
2023-03-07T02:37:47.646Z,21.95
2023-03-07T02:38:10.447Z,23.05
2023-03-07T02:38:36.635Z,22.98
2023-03-07T02:38:59.361Z,22.60
2023-03-07T02:39:22.276Z,22.75
2023-03-07T02:39:45.537Z,22.90
2023-03-07T02:40:10.239Z,23.08
2023-03-07T02:40:33.100Z,23.05
2023-03-07T02:40:55.922Z,22.67
2023-03-07T02:41:20.058Z,22.30
2023-03-07T02:41:42.908Z,22.88
2023-03-07T02:42:09.301Z,23.17
2023-03-07T02:42:33.046Z,22.92
2023-03-07T02:42:56.301Z,22.88
2023-03-07T02:43:19.061Z,22.35
2023-03-07T02:43:41.990Z,21.50
2023-03-07T02:44:04.907Z,22.42
2023-03-07T02:44:27.701Z,22.77
2023-03-07T02:44:57.136Z,22.92
2023-03-07T02:45:20.010Z,22.45
2023-03-07T02:45:42.731Z,22.15
2023-03-07T02:46:06.022Z,22.48
2023-03-07T02:46:28.876Z,22.45
2023-03-07T02:46:51.745Z,22.70
2023-03-07T02:47:14.727Z,22.63
2023-03-07T02:47:37.533Z,22.25
2023-03-07T02:48:00.219Z,22.30
2023-03-07T02:48:23.020Z,22.65
2023-03-07T02:48:45.875Z,22.20
2023-03-07T02:49:08.696Z,20.92
2023-03-07T02:49:31.480Z,21.95
2023-03-07T02:49:54.221Z,21.60
2023-03-07T02:50:17.053Z,21.75
2023-03-07T02:50:39.843Z,22.65
2023-03-07T02:51:03.756Z,21.60
2023-03-07T02:51:26.566Z,21.55
2023-03-07T02:51:49.276Z,22.08
2023-03-07T02:52:12.095Z,22.60
2023-03-07T02:52:34.811Z,21.60
2023-03-07T02:52:57.554Z,21.17
2023-03-07T02:53:20.310Z,21.45
2023-03-07T02:53:43.131Z,22.35
2023-03-07T02:54:06.218Z,22.75
2023-03-07T02:54:28.991Z,22.33
2023-03-07T02:54:51.769Z,22.15
2023-03-07T02:55:14.728Z,22.77
2023-03-07T02:55:37.781Z,21.17
2023-03-07T02:56:00.594Z,21.55
2023-03-07T02:56:23.482Z,22.33
2023-03-07T02:56:46.282Z,22.88
2023-03-07T02:57:13.611Z,21.67
2023-03-07T02:57:36.434Z,21.13
2023-03-07T02:57:59.217Z,21.85
2023-03-07T02:58:22.137Z,21.77
2023-03-07T02:58:44.966Z,22.00
2023-03-07T02:59:07.816Z,22.73
2023-03-07T02:59:30.650Z,22.67
2023-03-07T02:59:53.690Z,22.23
2023-03-07T03:00:17.461Z,21.38
2023-03-07T03:00:40.222Z,22.20
2023-03-07T03:01:03.951Z,21.75
2023-03-07T03:01:26.756Z,21.02
2023-03-07T03:01:49.648Z,21.45
2023-03-07T03:02:12.554Z,21.80
2023-03-07T03:02:35.367Z,21.75
2023-03-07T03:02:58.160Z,21.90
2023-03-07T03:03:21.044Z,21.60
2023-03-07T03:03:44.817Z,21.20
2023-03-07T03:04:07.588Z,21.10
2023-03-07T03:04:30.503Z,21.27
2023-03-07T03:04:53.343Z,20.92
2023-03-07T03:05:16.364Z,22.10
2023-03-07T03:05:39.195Z,22.45
2023-03-07T03:06:01.928Z,22.00
2023-03-07T03:06:24.715Z,22.08
2023-03-07T03:06:47.528Z,22.45
2023-03-07T03:07:10.389Z,21.73
2023-03-07T03:07:33.192Z,21.55
2023-03-07T03:07:56.441Z,21.63
2023-03-07T03:08:19.245Z,21.42
2023-03-07T03:08:42.045Z,21.70
2023-03-07T03:09:04.805Z,21.60
2023-03-07T03:09:30.085Z,21.73
2023-03-07T03:09:52.810Z,21.52
2023-03-07T03:10:18.171Z,22.02
2023-03-07T03:10:40.977Z,21.25
2023-03-07T03:11:03.852Z,21.25
2023-03-07T03:11:26.560Z,22.30
2023-03-07T03:11:49.338Z,21.75
2023-03-07T03:12:13.581Z,20.85
2023-03-07T03:12:36.334Z,21.25
2023-03-07T03:12:59.126Z,21.75
2023-03-07T03:13:21.793Z,21.45
2023-03-07T03:13:44.520Z,22.35
2023-03-07T03:14:07.355Z,21.85
2023-03-07T03:14:30.245Z,21.70
2023-03-07T03:14:52.979Z,22.17
2023-03-07T03:15:18.390Z,22.02
2023-03-07T03:15:41.105Z,21.83
2023-03-07T03:16:04.224Z,21.10
2023-03-07T03:16:27.142Z,21.65
2023-03-07T03:16:51.896Z,22.10
2023-03-07T03:17:14.726Z,21.40
2023-03-07T03:17:37.496Z,21.48
2023-03-07T03:18:00.232Z,21.65
2023-03-07T03:18:23.225Z,20.60
2023-03-07T03:18:46.016Z,20.85
2023-03-07T03:19:09.015Z,21.83
2023-03-07T03:19:31.862Z,21.50
2023-03-07T03:19:56.439Z,21.10
2023-03-07T03:20:19.379Z,22.00
2023-03-07T03:20:42.103Z,22.50
2023-03-07T03:21:08.759Z,20.98
2023-03-07T03:21:31.674Z,21.83
2023-03-07T03:21:54.403Z,21.58
2023-03-07T03:22:17.231Z,21.13
2023-03-07T03:22:39.953Z,22.27
2023-03-07T03:23:02.726Z,21.35
2023-03-07T03:23:27.521Z,21.08
2023-03-07T03:23:50.303Z,22.35
2023-03-07T03:24:12.992Z,22.73
2023-03-07T03:24:41.448Z,22.90
2023-03-07T03:25:05.177Z,23.20
2023-03-07T03:25:27.922Z,22.77
2023-03-07T03:25:58.282Z,23.20
2023-03-07T03:26:21.698Z,23.75
2023-03-07T03:26:44.475Z,23.60
2023-03-07T03:27:07.420Z,22.95
2023-03-07T03:27:32.352Z,22.67
2023-03-07T03:27:55.339Z,23.75
2023-03-07T03:28:18.103Z,23.90
2023-03-07T03:28:40.886Z,23.90
2023-03-07T03:29:03.850Z,23.48
2023-03-07T03:29:27.315Z,23.80
2023-03-07T03:29:49.987Z,23.80
2023-03-07T03:30:14.119Z,24.15
2023-03-07T03:30:36.902Z,23.60
2023-03-07T03:30:59.985Z,24.55
2023-03-07T03:31:22.808Z,23.55
2023-03-07T03:31:45.688Z,23.15
2023-03-07T03:32:08.593Z,23.42
2023-03-07T03:32:31.703Z,24.25
2023-03-07T03:32:54.507Z,23.55
2023-03-07T03:33:17.303Z,23.42
2023-03-07T03:33:40.055Z,22.35
2023-03-07T03:34:02.941Z,23.15
2023-03-07T03:34:25.780Z,22.77
2023-03-07T03:34:48.483Z,22.02
2023-03-07T03:35:12.319Z,22.52
2023-03-07T03:35:35.178Z,23.10
2023-03-07T03:35:58.196Z,22.48
2023-03-07T03:36:21.959Z,22.48
2023-03-07T03:36:44.651Z,22.17
2023-03-07T03:37:08.040Z,22.83
2023-03-07T03:37:31.272Z,22.33
2023-03-07T03:37:54.096Z,23.40
2023-03-07T03:38:16.799Z,23.15
2023-03-07T03:38:39.534Z,22.83
2023-03-07T03:39:02.300Z,22.40
2023-03-07T03:39:25.138Z,21.67
2023-03-07T03:39:48.338Z,21.85
2023-03-07T03:40:14.810Z,22.13
2023-03-07T03:40:38.884Z,22.80
2023-03-07T03:41:04.743Z,23.00
2023-03-07T03:41:27.544Z,23.08
2023-03-07T03:41:50.296Z,21.45
2023-03-07T03:42:13.689Z,21.73
2023-03-07T03:42:37.876Z,22.50
2023-03-07T03:43:00.550Z,22.20
2023-03-07T03:43:23.851Z,22.30
2023-03-07T03:43:46.660Z,21.63
2023-03-07T03:44:09.376Z,22.17
2023-03-07T03:44:32.146Z,22.90
2023-03-07T03:44:55.238Z,22.95
2023-03-07T03:45:18.090Z,22.70
2023-03-07T03:45:40.919Z,23.48
2023-03-07T03:46:03.925Z,22.77
2023-03-07T03:46:27.145Z,23.10
2023-03-07T03:46:49.997Z,22.63
2023-03-07T03:47:13.457Z,22.50
2023-03-07T03:47:36.261Z,22.63
2023-03-07T03:47:59.064Z,22.13
2023-03-07T03:48:21.913Z,22.52
2023-03-07T03:48:44.996Z,23.90
2023-03-07T03:49:07.910Z,22.92
2023-03-07T03:49:33.820Z,23.00
2023-03-07T03:49:56.539Z,22.42
2023-03-07T03:50:19.487Z,22.35
2023-03-07T03:50:42.201Z,23.48
2023-03-07T03:51:05.820Z,23.80
2023-03-07T03:51:28.773Z,23.10
2023-03-07T03:51:51.566Z,23.48
2023-03-07T03:52:14.321Z,23.90
2023-03-07T03:52:37.285Z,23.00
2023-03-07T03:53:00.592Z,24.10
2023-03-07T03:53:23.366Z,23.77
2023-03-07T03:53:46.431Z,23.30
2023-03-07T03:54:09.241Z,23.33
2023-03-07T03:54:32.111Z,23.42
2023-03-07T03:54:55.011Z,23.38
2023-03-07T03:55:18.251Z,24.48
2023-03-07T03:55:40.947Z,23.75
2023-03-07T03:56:04.491Z,22.98
2023-03-07T03:56:27.703Z,24.17
2023-03-07T03:56:50.511Z,23.67
2023-03-07T03:57:17.954Z,23.67
2023-03-07T03:57:42.375Z,24.75
2023-03-07T03:58:05.219Z,23.08
2023-03-07T03:58:28.006Z,23.50
2023-03-07T03:58:54.194Z,22.92
2023-03-07T03:59:19.353Z,24.67
2023-03-07T03:59:43.240Z,24.02
2023-03-07T04:00:09.157Z,24.17
2023-03-07T04:00:31.924Z,24.00
2023-03-07T04:00:54.677Z,23.85
2023-03-07T04:01:17.986Z,23.60
2023-03-07T04:01:40.774Z,23.55
2023-03-07T04:02:03.811Z,23.80
2023-03-07T04:02:27.224Z,23.83
2023-03-07T04:02:50.288Z,23.45
2023-03-07T04:03:13.226Z,23.20
2023-03-07T04:03:36.660Z,23.20
2023-03-07T04:03:59.594Z,23.88
2023-03-07T04:04:22.424Z,23.50
2023-03-07T04:04:45.236Z,23.73
2023-03-07T04:05:09.610Z,24.02
2023-03-07T04:05:34.401Z,23.85
2023-03-07T04:06:01.801Z,23.20
2023-03-07T04:06:26.076Z,23.40
2023-03-07T04:06:48.822Z,23.50
2023-03-07T04:07:11.648Z,23.38
2023-03-07T04:07:34.400Z,22.63
2023-03-07T04:07:57.252Z,23.52
2023-03-07T04:08:20.145Z,24.17
2023-03-07T04:08:43.047Z,23.23
2023-03-07T04:09:05.918Z,23.60
2023-03-07T04:09:28.645Z,23.67
2023-03-07T04:09:54.181Z,23.05
2023-03-07T04:10:17.279Z,22.98
2023-03-07T04:10:40.035Z,23.48
2023-03-07T04:11:06.028Z,22.75
2023-03-07T04:11:28.897Z,23.50
2023-03-07T04:11:51.708Z,22.23
2023-03-07T04:12:14.597Z,22.63
2023-03-07T04:12:37.443Z,22.65
2023-03-07T04:13:01.642Z,22.40
2023-03-07T04:13:24.528Z,22.38
2023-03-07T04:13:47.288Z,22.00
2023-03-07T04:14:10.715Z,23.38
2023-03-07T04:14:33.498Z,22.98
2023-03-07T04:14:56.269Z,22.80
2023-03-07T04:15:19.032Z,21.90
2023-03-07T04:15:42.045Z,22.30
2023-03-07T04:16:05.732Z,22.13
2023-03-07T04:16:28.662Z,22.60
2023-03-07T04:16:51.472Z,23.13
2023-03-07T04:17:14.357Z,23.35
2023-03-07T04:17:37.142Z,22.60
2023-03-07T04:17:59.881Z,22.45
2023-03-07T04:18:22.951Z,23.52
2023-03-07T04:18:45.642Z,23.90
2023-03-07T04:19:10.376Z,23.88
2023-03-07T04:19:33.206Z,23.75
2023-03-07T04:19:55.970Z,22.95
2023-03-07T04:20:19.189Z,22.95
2023-03-07T04:20:42.708Z,22.95
2023-03-07T04:21:06.141Z,22.85
2023-03-07T04:21:28.872Z,22.75
2023-03-07T04:21:52.027Z,23.38
2023-03-07T04:22:14.950Z,22.85
2023-03-07T04:22:37.727Z,23.27
2023-03-07T04:23:00.537Z,23.27
2023-03-07T04:23:24.262Z,22.98
2023-03-07T04:23:49.705Z,22.98
2023-03-07T04:24:12.415Z,22.83
2023-03-07T04:24:35.171Z,22.90
2023-03-07T04:24:57.930Z,23.17
2023-03-07T04:25:20.710Z,22.15
2023-03-07T04:25:48.349Z,22.75
2023-03-07T04:26:11.316Z,22.65
2023-03-07T04:26:34.121Z,22.50
2023-03-07T04:26:56.849Z,22.08
2023-03-07T04:27:19.639Z,22.50
2023-03-07T04:27:42.554Z,23.58
2023-03-07T04:28:06.711Z,23.10
2023-03-07T04:28:46.038Z,22.23
2023-03-07T04:29:09.905Z,22.60
2023-03-07T04:29:32.824Z,22.77
2023-03-07T04:29:56.012Z,22.80
2023-03-07T04:30:18.731Z,21.83
2023-03-07T04:30:41.477Z,22.02
2023-03-07T04:31:05.695Z,22.27
2023-03-07T04:31:31.414Z,23.00
2023-03-07T04:31:54.219Z,23.42
2023-03-07T04:32:17.160Z,22.87
2023-03-07T04:32:39.919Z,22.17
2023-03-07T04:33:02.606Z,22.38
2023-03-07T04:33:27.586Z,22.20
2023-03-07T04:33:50.882Z,22.25
2023-03-07T04:34:13.622Z,22.83
2023-03-07T04:34:39.387Z,22.20
2023-03-07T04:35:02.185Z,21.75
2023-03-07T04:35:24.963Z,21.63
2023-03-07T04:35:48.070Z,21.90
2023-03-07T04:36:11.167Z,22.48
2023-03-07T04:36:34.102Z,22.42
2023-03-07T04:36:56.922Z,21.42
2023-03-07T04:37:19.736Z,21.92
2023-03-07T04:37:42.572Z,22.60
2023-03-07T04:38:05.601Z,22.33
2023-03-07T04:38:28.390Z,21.42
2023-03-07T04:38:51.141Z,22.25
2023-03-07T04:39:13.941Z,22.63
2023-03-07T04:39:36.874Z,23.08
2023-03-07T04:39:59.691Z,21.92
2023-03-07T04:40:22.594Z,22.23
2023-03-07T04:40:45.284Z,21.27
2023-03-07T04:41:08.034Z,21.65
2023-03-07T04:41:30.896Z,22.08
2023-03-07T04:41:53.631Z,22.65
2023-03-07T04:42:16.435Z,22.70
2023-03-07T04:42:39.200Z,22.55
2023-03-07T04:43:03.598Z,22.83
2023-03-07T04:43:27.902Z,22.23
2023-03-07T04:43:50.723Z,22.88
2023-03-07T04:44:15.555Z,22.33
2023-03-07T04:44:38.765Z,22.98
2023-03-07T04:45:03.859Z,23.35
2023-03-07T04:45:27.482Z,22.73
2023-03-07T04:45:50.324Z,22.10
2023-03-07T04:46:17.568Z,23.27
2023-03-07T04:46:41.206Z,22.75
2023-03-07T04:47:04.120Z,22.45
2023-03-07T04:47:26.887Z,22.98
2023-03-07T04:47:49.707Z,23.35
2023-03-07T04:48:12.957Z,23.27
2023-03-07T04:48:35.790Z,23.40
2023-03-07T04:48:58.491Z,23.35
2023-03-07T04:49:21.257Z,23.15
2023-03-07T04:49:43.996Z,23.00
2023-03-07T04:50:08.526Z,23.23
2023-03-07T04:50:31.353Z,23.33
2023-03-07T04:50:54.273Z,23.60
2023-03-07T04:51:17.010Z,23.88
2023-03-07T04:51:40.586Z,22.88
2023-03-07T04:52:05.688Z,23.20
2023-03-07T04:52:28.395Z,22.45
2023-03-07T04:52:51.187Z,23.52
2023-03-07T04:53:13.922Z,22.67
2023-03-07T04:53:36.827Z,22.50
2023-03-07T04:53:59.625Z,21.77
2023-03-07T04:54:22.431Z,22.58
2023-03-07T04:54:45.287Z,22.70
2023-03-07T04:55:09.185Z,22.40
2023-03-07T04:55:31.963Z,22.13
2023-03-07T04:55:58.910Z,22.40
2023-03-07T04:56:21.722Z,23.25
2023-03-07T04:56:44.418Z,22.70
2023-03-07T04:57:07.224Z,22.90
2023-03-07T04:57:29.924Z,22.17
2023-03-07T04:57:52.789Z,23.05
2023-03-07T04:58:15.635Z,23.17
2023-03-07T04:58:40.168Z,22.65
2023-03-07T04:59:02.947Z,22.38
2023-03-07T04:59:25.687Z,22.88
2023-03-07T04:59:48.442Z,22.73
2023-03-07T05:00:13.282Z,23.63
2023-03-07T05:00:36.011Z,23.55
2023-03-07T05:00:58.776Z,23.17
2023-03-07T05:01:21.614Z,22.92
2023-03-07T05:01:44.422Z,23.63
2023-03-07T05:02:07.867Z,22.77
2023-03-07T05:02:30.704Z,23.67
2023-03-07T05:02:57.855Z,22.98
2023-03-07T05:03:20.562Z,23.27
2023-03-07T05:03:43.485Z,23.08
2023-03-07T05:04:06.389Z,22.10
2023-03-07T05:04:29.162Z,22.52
2023-03-07T05:04:52.007Z,23.25